createdAt,value
2023-01-07T00:00:05.579Z,2.07
2023-01-07T00:02:53.856Z,1.90
2023-01-07T00:05:41.804Z,1.80
2023-01-07T00:08:31.607Z,1.50
2023-01-07T00:11:21.312Z,1.70
2023-01-07T00:14:12.784Z,1.50
2023-01-07T00:17:00.765Z,2.07
2023-01-07T00:19:48.711Z,2.23
2023-01-07T00:22:36.686Z,2.10
2023-01-07T00:25:24.653Z,1.73
2023-01-07T00:28:12.599Z,1.97
2023-01-07T00:31:02.795Z,2.00
2023-01-07T00:34:06.869Z,2.73
2023-01-07T00:37:16.353Z,1.80
2023-01-07T00:40:04.368Z,1.80
2023-01-07T00:43:02.265Z,1.97
2023-01-07T00:45:50.259Z,2.10
2023-01-07T00:48:39.577Z,2.57
2023-01-07T00:51:27.624Z,2.43
2023-01-07T00:54:16.214Z,2.50
2023-01-07T00:57:04.196Z,3.60
2023-01-07T00:59:52.307Z,2.93
2023-01-07T01:02:40.751Z,3.53
2023-01-07T01:05:30.083Z,3.90
2023-01-07T01:08:18.794Z,2.60
2023-01-07T01:11:08.490Z,3.37
2023-01-07T01:13:56.514Z,3.23
2023-01-07T01:16:44.506Z,3.53
2023-01-07T01:19:32.597Z,3.53
2023-01-07T01:22:22.111Z,4.23
2023-01-07T01:25:10.939Z,3.30
2023-01-07T01:27:58.916Z,3.63
2023-01-07T01:30:46.876Z,4.27
2023-01-07T01:33:35.094Z,3.87
2023-01-07T01:36:23.636Z,5.30
2023-01-07T01:39:13.300Z,4.97
2023-01-07T01:42:01.443Z,4.03
2023-01-07T01:44:51.578Z,4.00
2023-01-07T01:47:43.967Z,3.67
2023-01-07T01:50:37.996Z,4.17
2023-01-07T01:53:29.734Z,4.27
2023-01-07T01:56:22.627Z,4.70
2023-01-07T01:59:15.455Z,4.23
2023-01-07T02:02:03.962Z,4.10
2023-01-07T02:04:52.525Z,4.20
2023-01-07T02:07:40.524Z,4.23
2023-01-07T02:10:31.159Z,5.27
2023-01-07T02:13:32.136Z,4.63
2023-01-07T02:16:27.029Z,4.20
2023-01-07T02:19:44.993Z,4.27
2023-01-07T02:23:03.016Z,4.10
2023-01-07T02:26:42.248Z,5.43
2023-01-07T02:33:27.912Z,4.33
2023-01-07T02:36:37.770Z,4.13
2023-01-07T02:39:43.747Z,4.60
2023-01-07T02:42:41.066Z,4.73
2023-01-07T02:45:32.267Z,4.67
2023-01-07T02:48:23.912Z,4.63
2023-01-07T02:51:11.872Z,4.83
2023-01-07T02:53:59.961Z,5.70
2023-01-07T02:57:06.372Z,6.40
2023-01-07T03:00:15.814Z,6.63
2023-01-07T03:03:21.949Z,5.63
2023-01-07T03:06:25.802Z,6.17
2023-01-07T03:09:21.783Z,5.93
2023-01-07T03:12:17.212Z,5.57
2023-01-07T03:15:12.565Z,5.43
2023-01-07T03:18:03.839Z,7.83
2023-01-07T03:20:55.823Z,5.33
2023-01-07T03:23:49.884Z,4.93
2023-01-07T03:26:43.135Z,5.70
2023-01-07T03:29:32.925Z,5.03
2023-01-07T03:32:25.111Z,6.63
2023-01-07T03:35:13.385Z,5.87
2023-01-07T03:38:03.476Z,6.77
2023-01-07T03:40:53.744Z,5.37
2023-01-07T03:43:40.749Z,6.50
2023-01-07T03:46:29.083Z,7.10
2023-01-07T03:49:17.151Z,6.23
2023-01-07T03:52:05.295Z,5.53
2023-01-07T03:54:53.296Z,7.17
2023-01-07T03:57:42.612Z,5.20
2023-01-07T04:00:30.602Z,6.10
2023-01-07T04:03:18.578Z,6.83
2023-01-07T04:06:06.677Z,6.60
2023-01-07T04:08:54.670Z,6.63
2023-01-07T04:11:42.663Z,6.23
2023-01-07T04:14:32.075Z,6.30
2023-01-07T04:17:20.105Z,8.57
2023-01-07T04:20:09.173Z,7.90
2023-01-07T04:22:57.133Z,6.70
2023-01-07T04:25:47.626Z,8.20
2023-01-07T04:28:35.657Z,6.20
2023-01-07T04:31:24.973Z,7.50
2023-01-07T04:34:13.135Z,8.50
2023-01-07T04:37:01.147Z,8.40
2023-01-07T04:39:49.175Z,7.70
2023-01-07T04:42:37.319Z,8.77
2023-01-07T04:45:25.365Z,7.60
2023-01-07T04:48:14.743Z,8.60
2023-01-07T04:51:02.998Z,7.80
2023-01-07T04:53:51.129Z,8.97
2023-01-07T04:56:39.107Z,7.63
2023-01-07T04:59:27.086Z,7.50
2023-01-07T05:02:15.125Z,8.13
2023-01-07T05:05:04.765Z,7.67
2023-01-07T05:07:52.723Z,8.63
2023-01-07T05:10:40.752Z,8.03
2023-01-07T05:13:28.762Z,8.70
2023-01-07T05:16:16.832Z,10.07
2023-01-07T05:19:04.850Z,8.40
2023-01-07T05:21:54.313Z,9.50
2023-01-07T05:24:42.291Z,8.43
2023-01-07T05:27:30.225Z,7.87
2023-01-07T05:30:18.290Z,7.53
2023-01-07T05:33:07.324Z,6.43
2023-01-07T05:35:55.436Z,8.97
2023-01-07T05:38:44.749Z,10.07
2023-01-07T05:41:32.709Z,8.40
2023-01-07T05:44:20.664Z,8.20
2023-01-07T05:47:08.617Z,8.07
2023-01-07T05:49:56.573Z,9.30
2023-01-07T05:52:44.553Z,11.07
2023-01-07T05:55:33.983Z,8.80
2023-01-07T05:58:21.906Z,8.23
2023-01-07T06:01:09.899Z,8.43
2023-01-07T06:03:58.060Z,9.67
2023-01-07T06:06:46.055Z,8.40
2023-01-07T06:09:34.013Z,7.50
2023-01-07T06:12:23.335Z,8.63
2023-01-07T06:15:12.218Z,8.17
2023-01-07T06:18:00.181Z,7.03
2023-01-07T06:20:48.142Z,7.40
2023-01-07T06:23:37.165Z,8.50
2023-01-07T06:26:25.323Z,6.97
2023-01-07T06:29:14.742Z,7.50
2023-01-07T06:32:02.704Z,7.23
2023-01-07T06:34:50.771Z,6.30
2023-01-07T06:37:41.346Z,6.23
2023-01-07T06:40:29.462Z,6.37
2023-01-07T06:43:17.440Z,7.63
2023-01-07T06:46:07.077Z,6.07
2023-01-07T06:48:55.171Z,5.87
2023-01-07T06:51:43.097Z,6.23
2023-01-07T06:54:31.054Z,7.60
2023-01-07T06:57:19.018Z,6.00
2023-01-07T07:00:08.045Z,6.67
2023-01-07T07:02:57.584Z,6.03
2023-01-07T07:05:45.692Z,5.70
2023-01-07T07:08:33.727Z,5.77
2023-01-07T07:11:21.679Z,6.00
2023-01-07T07:14:09.647Z,6.67
2023-01-07T07:16:57.598Z,6.93
2023-01-07T07:19:46.936Z,5.87
2023-01-07T07:22:34.886Z,5.57
2023-01-07T07:25:22.933Z,6.37
2023-01-07T07:28:10.892Z,6.17
2023-01-07T07:30:58.992Z,6.17
2023-01-07T07:33:47.078Z,6.47
2023-01-07T07:36:36.467Z,5.30
2023-01-07T07:39:24.563Z,5.70
2023-01-07T07:42:14.084Z,5.60
2023-01-07T07:45:02.113Z,6.13
2023-01-07T07:47:50.570Z,5.70
2023-01-07T07:50:38.659Z,5.07
2023-01-07T07:53:28.016Z,5.43
2023-01-07T07:56:16.038Z,5.63
2023-01-07T07:59:04.161Z,5.40
2023-01-07T08:01:52.378Z,5.17
2023-01-07T08:04:40.522Z,5.13
2023-01-07T08:07:32.809Z,5.83
2023-01-07T08:10:23.274Z,4.93
2023-01-07T08:13:11.441Z,4.30
2023-01-07T08:15:59.632Z,4.37
2023-01-07T08:18:47.626Z,3.50
2023-01-07T08:21:35.621Z,4.57
2023-01-07T08:24:23.705Z,3.20
2023-01-07T08:27:13.079Z,5.23
2023-01-07T08:30:01.048Z,2.90
2023-01-07T08:32:49.171Z,2.53
2023-01-07T08:35:37.351Z,2.53
2023-01-07T08:38:27.364Z,1.87
2023-01-07T08:41:15.411Z,3.57
2023-01-07T08:44:05.005Z,2.27
2023-01-07T08:46:54.166Z,2.87
2023-01-07T08:49:42.218Z,3.90
2023-01-07T08:52:30.173Z,3.77
2023-01-07T08:55:18.439Z,4.57
2023-01-07T08:58:06.426Z,4.27
2023-01-07T09:00:55.944Z,4.33
2023-01-07T09:03:44.072Z,5.10
2023-01-07T09:06:32.063Z,4.70
2023-01-07T09:09:20.137Z,5.63
2023-01-07T09:12:10.810Z,5.67
2023-01-07T09:14:59.129Z,4.90
2023-01-07T09:17:48.635Z,5.00
2023-01-07T09:20:36.657Z,6.00
2023-01-07T09:23:24.620Z,5.60
2023-01-07T09:26:12.637Z,5.17
2023-01-07T09:29:00.583Z,5.70
2023-01-07T09:31:48.690Z,5.23
2023-01-07T09:34:38.469Z,7.30
2023-01-07T09:37:26.562Z,7.10
2023-01-07T09:40:23.720Z,7.93
2023-01-07T09:43:17.070Z,7.67
2023-01-07T09:46:09.639Z,6.33
2023-01-07T09:49:01.584Z,9.10
2023-01-07T09:51:55.535Z,7.17
2023-01-07T09:54:46.762Z,9.97
2023-01-07T09:57:34.956Z,7.33
2023-01-07T10:00:25.680Z,7.30
2023-01-07T10:03:24.162Z,6.47
2023-01-07T10:06:17.415Z,6.70
2023-01-07T10:09:13.705Z,6.60
2023-01-07T10:12:11.727Z,5.50
2023-01-07T10:15:21.918Z,6.63
2023-01-07T10:18:31.499Z,5.80
2023-01-07T10:21:23.331Z,6.80
2023-01-07T10:24:21.761Z,8.00
2023-01-07T10:27:16.055Z,5.10
2023-01-07T10:30:07.029Z,7.03
2023-01-07T10:33:03.764Z,5.73
2023-01-07T10:36:01.110Z,4.93
2023-01-07T10:38:57.256Z,5.83
2023-01-07T10:41:55.990Z,6.33
2023-01-07T10:45:15.421Z,5.37
2023-01-07T10:48:24.280Z,6.20
2023-01-07T10:51:30.343Z,5.70
2023-01-07T10:54:36.803Z,4.77
2023-01-07T10:57:28.797Z,4.27
2023-01-07T11:00:18.919Z,4.33
2023-01-07T11:03:17.699Z,4.20
2023-01-07T11:06:11.729Z,4.90
2023-01-07T11:08:59.714Z,3.40
2023-01-07T11:11:49.286Z,3.20
2023-01-07T11:14:41.759Z,3.33
2023-01-07T11:17:34.901Z,3.20
2023-01-07T11:20:42.853Z,3.87
2023-01-07T11:23:34.855Z,3.67
2023-01-07T11:26:26.967Z,3.10
2023-01-07T11:29:18.082Z,3.10
2023-01-07T11:32:15.752Z,3.77
2023-01-07T11:35:06.497Z,3.90
2023-01-07T11:37:54.637Z,3.43
2023-01-07T11:40:42.974Z,5.50
2023-01-07T11:43:34.276Z,3.10
2023-01-07T11:46:25.994Z,4.27
2023-01-07T11:49:30.881Z,3.60
2023-01-07T11:52:20.319Z,3.37
2023-01-07T11:55:19.713Z,3.87
2023-01-07T11:58:28.795Z,4.77
2023-01-07T12:01:19.771Z,3.90
2023-01-07T12:04:19.896Z,3.17
2023-01-07T12:07:15.210Z,3.77
2023-01-07T12:10:03.277Z,5.73
2023-01-07T12:12:52.522Z,4.87
2023-01-07T12:15:50.928Z,2.67
2023-01-07T12:19:05.844Z,3.13
2023-01-07T12:22:14.095Z,3.37
2023-01-07T12:25:17.046Z,4.97
2023-01-07T12:28:13.002Z,3.03
2023-01-07T12:31:12.033Z,2.87
2023-01-07T12:34:09.878Z,3.27
2023-01-07T12:37:02.647Z,2.67
2023-01-07T12:39:56.952Z,2.53
2023-01-07T12:42:50.784Z,3.20
2023-01-07T12:45:43.211Z,3.93
2023-01-07T12:48:37.321Z,3.13
2023-01-07T12:51:31.010Z,2.97
2023-01-07T12:54:35.172Z,2.90
2023-01-07T12:57:28.887Z,2.43
2023-01-07T13:00:20.124Z,2.87
2023-01-07T13:03:19.182Z,3.10
2023-01-07T13:06:13.340Z,2.33
2023-01-07T13:09:08.270Z,2.77
2023-01-07T13:12:40.723Z,2.57
2023-01-07T13:15:31.251Z,2.20
2023-01-07T13:18:21.288Z,3.37
2023-01-07T13:21:11.715Z,2.93
2023-01-07T13:24:20.868Z,2.67
2023-01-07T13:27:35.155Z,2.13
2023-01-07T13:30:32.062Z,2.03
2023-01-07T13:33:25.606Z,3.60
2023-01-07T13:36:29.844Z,2.50
2023-01-07T13:39:29.367Z,4.23
2023-01-07T13:42:30.884Z,4.30
2023-01-07T13:45:22.361Z,3.20
2023-01-07T13:48:20.331Z,3.10
2023-01-07T13:51:10.808Z,5.27
2023-01-07T13:53:59.005Z,3.80
2023-01-07T13:56:47.165Z,3.93
2023-01-07T13:59:49.512Z,4.87
2023-01-07T14:02:56.531Z,3.20
2023-01-07T14:05:45.918Z,3.57
2023-01-07T14:08:33.963Z,3.57
2023-01-07T14:11:48.870Z,3.10
2023-01-07T14:14:45.805Z,3.53
2023-01-07T14:17:41.134Z,2.43
2023-01-07T14:20:35.614Z,4.60
2023-01-07T14:23:33.982Z,4.10
2023-01-07T14:26:30.086Z,3.23
2023-01-07T14:29:39.638Z,2.67
2023-01-07T14:32:34.257Z,2.77
2023-01-07T14:35:27.975Z,2.30
2023-01-07T14:39:01.224Z,2.20
2023-01-07T14:42:22.770Z,2.30
2023-01-07T14:45:44.239Z,2.53
2023-01-07T14:48:38.170Z,3.57
2023-01-07T14:51:51.492Z,2.30
2023-01-07T14:55:11.548Z,3.43
2023-01-07T14:58:12.573Z,2.70
2023-01-07T15:01:44.483Z,2.10
2023-01-07T15:05:10.561Z,2.50
2023-01-07T15:08:16.112Z,2.90
2023-01-07T15:11:25.634Z,4.10
2023-01-07T15:14:41.327Z,2.60
2023-01-07T15:17:29.655Z,2.63
2023-01-07T15:20:19.119Z,2.83
2023-01-07T15:23:11.630Z,2.57
2023-01-07T15:26:06.425Z,2.70
2023-01-07T15:29:01.708Z,2.80
2023-01-07T15:31:58.564Z,2.00
2023-01-07T15:34:46.853Z,3.73
2023-01-07T15:37:36.221Z,3.60
2023-01-07T15:40:26.489Z,2.67
2023-01-07T15:43:23.913Z,2.53
2023-01-07T15:46:14.915Z,2.77
2023-01-07T15:49:17.871Z,2.83
2023-01-07T15:52:23.898Z,3.33
2023-01-07T15:55:21.551Z,2.90
2023-01-07T15:58:17.061Z,2.97
2023-01-07T16:01:07.645Z,2.47
2023-01-07T16:03:57.910Z,2.73
2023-01-07T16:06:46.936Z,3.37
2023-01-07T16:09:35.593Z,3.17
2023-01-07T16:12:34.236Z,3.20
2023-01-07T16:15:28.088Z,2.60
2023-01-07T16:18:20.020Z,3.93
2023-01-07T16:21:14.631Z,3.43
2023-01-07T16:24:02.701Z,2.67
2023-01-07T16:26:55.210Z,4.27
2023-01-07T16:29:51.379Z,4.10
2023-01-07T16:32:39.572Z,2.60
2023-01-07T16:35:32.960Z,3.20
2023-01-07T16:38:21.539Z,3.07
2023-01-07T16:41:21.617Z,3.20
2023-01-07T16:44:57.197Z,3.50
2023-01-07T16:48:01.020Z,3.50
2023-01-07T16:50:50.031Z,3.83
2023-01-07T16:53:38.145Z,5.63
2023-01-07T16:56:26.219Z,4.60
2023-01-07T16:59:15.823Z,5.07
2023-01-07T17:02:13.801Z,4.33
2023-01-07T17:05:19.263Z,5.93
2023-01-07T17:08:18.587Z,6.33
2023-01-07T17:11:19.366Z,3.20
2023-01-07T17:14:47.089Z,5.90
2023-01-07T17:17:35.425Z,3.60
2023-01-07T17:20:23.453Z,3.93
2023-01-07T17:23:33.161Z,3.23
2023-01-07T17:26:23.669Z,4.17
2023-01-07T17:29:13.517Z,3.73
2023-01-07T17:32:04.560Z,3.43
2023-01-07T17:34:52.543Z,5.30
2023-01-07T17:37:40.576Z,3.33
2023-01-07T17:40:28.593Z,4.13
2023-01-07T17:43:37.604Z,4.00
2023-01-07T17:46:25.603Z,2.80
2023-01-07T17:49:15.020Z,3.47
2023-01-07T17:52:03.418Z,3.40
2023-01-07T17:54:51.347Z,3.63
2023-01-07T17:57:39.286Z,3.40
2023-01-07T18:00:30.990Z,5.37
2023-01-07T18:03:18.946Z,3.47
2023-01-07T18:06:17.395Z,3.20
2023-01-07T18:09:08.499Z,3.60
2023-01-07T18:12:13.796Z,3.63
2023-01-07T18:15:04.193Z,3.40
2023-01-07T18:17:52.830Z,3.30
2023-01-07T18:20:40.887Z,4.70
2023-01-07T18:23:30.201Z,3.50
2023-01-07T18:26:19.133Z,3.67
2023-01-07T18:29:07.133Z,2.97
2023-01-07T18:31:55.501Z,4.43
2023-01-07T18:34:43.490Z,4.00
2023-01-07T18:37:31.469Z,3.63
2023-01-07T18:40:21.639Z,3.27
2023-01-07T18:43:13.179Z,4.13
2023-01-07T18:46:01.360Z,4.43
2023-01-07T18:48:49.579Z,3.50
2023-01-07T18:51:37.615Z,2.93
2023-01-07T18:54:27.937Z,4.17
2023-01-07T18:57:17.291Z,4.47
2023-01-07T19:00:05.963Z,3.30
2023-01-07T19:02:54.058Z,4.67
2023-01-07T19:05:42.310Z,4.60
2023-01-07T19:08:33.587Z,3.30
2023-01-07T19:11:21.564Z,4.33
2023-01-07T19:14:11.455Z,3.33
2023-01-07T19:16:59.469Z,3.93
2023-01-07T19:19:49.129Z,3.90
2023-01-07T19:22:41.320Z,4.90
2023-01-07T19:25:29.428Z,4.37
2023-01-07T19:28:17.354Z,4.13
2023-01-07T19:31:09.467Z,3.67
2023-01-07T19:33:57.550Z,3.80
2023-01-07T19:36:47.146Z,4.20
2023-01-07T19:39:35.151Z,5.00
2023-01-07T19:42:23.244Z,5.07
2023-01-07T19:45:11.654Z,4.90
2023-01-07T19:48:00.968Z,3.27
2023-01-07T19:50:56.861Z,3.27
2023-01-07T19:53:45.035Z,4.73
2023-01-07T19:56:34.527Z,3.70
2023-01-07T19:59:22.555Z,6.03
2023-01-07T20:02:13.785Z,4.40
2023-01-07T20:05:05.790Z,3.40
2023-01-07T20:07:53.794Z,4.10
2023-01-07T20:10:41.751Z,5.53
2023-01-07T20:13:33.679Z,4.17
2023-01-07T20:16:23.386Z,3.70
2023-01-07T20:19:12.625Z,2.63
2023-01-07T20:22:01.954Z,4.27
2023-01-07T20:24:49.928Z,3.63
2023-01-07T20:27:38.194Z,4.43
2023-01-07T20:30:28.141Z,3.50
2023-01-07T20:33:17.089Z,4.20
2023-01-07T20:36:08.049Z,6.07
2023-01-07T20:38:57.728Z,4.50
2023-01-07T20:41:45.777Z,3.77
2023-01-07T20:44:34.606Z,4.20
2023-01-07T20:47:23.612Z,4.63
2023-01-07T20:50:11.610Z,5.93
2023-01-07T20:52:59.560Z,6.17
2023-01-07T20:55:51.533Z,4.63
2023-01-07T20:58:40.157Z,7.43
2023-01-07T21:01:29.621Z,4.50
2023-01-07T21:04:17.812Z,4.13
2023-01-07T21:07:05.864Z,4.50
2023-01-07T21:09:53.842Z,5.33
2023-01-07T21:12:44.146Z,5.10
2023-01-07T21:15:32.613Z,4.80
2023-01-07T21:18:20.680Z,4.33
2023-01-07T21:21:13.648Z,5.67
2023-01-07T21:24:02.873Z,5.37
2023-01-07T21:26:50.925Z,5.03
2023-01-07T21:29:40.241Z,5.60
2023-01-07T21:32:28.331Z,5.67
2023-01-07T21:35:16.869Z,6.43
2023-01-07T21:38:04.857Z,4.83
2023-01-07T21:40:52.867Z,5.53
2023-01-07T21:43:41.441Z,4.77
2023-01-07T21:46:30.780Z,5.53
2023-01-07T21:49:19.539Z,5.77
2023-01-07T21:52:07.528Z,5.43
2023-01-07T21:54:56.313Z,4.40
2023-01-07T21:57:44.725Z,5.70
2023-01-07T22:00:32.735Z,5.37
2023-01-07T22:03:22.071Z,5.40
2023-01-07T22:06:18.726Z,5.87
2023-01-07T22:09:10.757Z,6.03
2023-01-07T22:11:59.931Z,6.57
2023-01-07T22:14:47.864Z,6.40
2023-01-07T22:17:36.165Z,5.80
2023-01-07T22:20:25.444Z,5.80
2023-01-07T22:23:17.836Z,5.60
2023-01-07T22:26:07.062Z,5.43
2023-01-07T22:28:57.719Z,6.30
2023-01-07T22:31:48.247Z,7.90
2023-01-07T22:34:36.253Z,6.10
2023-01-07T22:37:26.787Z,5.10
2023-01-07T22:40:14.864Z,5.70
2023-01-07T22:43:06.325Z,4.83
2023-01-07T22:45:58.941Z,5.30
2023-01-07T22:48:46.938Z,5.37
2023-01-07T22:51:38.864Z,5.27
2023-01-07T22:54:29.118Z,5.10
2023-01-07T22:57:17.146Z,6.13
2023-01-07T23:00:09.199Z,5.53
2023-01-07T23:02:58.776Z,4.60
2023-01-07T23:05:48.314Z,5.97
2023-01-07T23:08:37.015Z,5.20
2023-01-07T23:11:43.856Z,5.03
2023-01-07T23:14:32.526Z,6.40
2023-01-07T23:17:20.508Z,4.60
2023-01-07T23:20:09.427Z,5.70
2023-01-07T23:22:57.364Z,5.83
2023-01-07T23:25:46.199Z,5.57
2023-01-07T23:28:35.571Z,5.10
2023-01-07T23:31:23.652Z,5.87
2023-01-07T23:34:11.847Z,5.20
2023-01-07T23:36:59.872Z,5.80
2023-01-07T23:39:48.273Z,6.00
2023-01-07T23:42:36.434Z,5.90
2023-01-07T23:45:26.067Z,4.70
2023-01-07T23:48:14.099Z,4.73
2023-01-07T23:51:06.165Z,5.47
2023-01-07T23:53:54.170Z,5.73
2023-01-07T23:56:42.253Z,9.73
2023-01-07T23:59:30.295Z,5.70
